Amorinopolis, Brazil
Current Conditions -  °F | °C
As of 7:00 PM on Tuesday 21 Oct 2014 (Local Time) from SBGO Reporting Station
Few Clouds Few Clouds  
Wind Chill: 91°   Ceiling: Unl
Heat Index: 91°   Visibility: 6mi
Dew Point: 50°   Wind: 8mph
Humidity: 24%   Direction: 150°SSE
Pressure: 29.88"   Gusts: NA
Location:  16.62°S, 51.09°W
Report Text: SBGO 212100Z 15007KT 9999 FEW040 33/10 Q1012
Loading
Personal Weather Stations






























Interactive Weather Map
Tropical Storm Tracking
New forecast layout! Learn more

10-Day Weather Forecast

Advertisements
Track Severe Weather on mobile